METAR Data
IDs: Format: Raw Decoded Include TAF

Data at: 1328 UTC 22 Apr 2021

METAR for:KELA (Eagle Lake Arpt, TX, US)
Text:KELA 221050Z AUTO 04003KT 10SM CLR 09/05 A3012 RMK AO2 T00880048
Temperature: 8.8°C ( 48°F)
Dewpoint: 4.8°C ( 41°F) [RH = 76%]
Pressure (altimeter):30.12 inches Hg (1020.1 mb)
Winds:from the NE (40 degrees) at 3 MPH (3 knots; 1.5 m/s)
Visibility:10 or more sm (16+ km)
Ceiling:at least 12,000 feet AGL
Clouds:sky clear below 12,000 feet AGL
QC Flag:automated observation with no human augmentation

TAF for:KELA (Eagle Lake Arpt, TX, US)
Text:No data found